createdAt,value
2019-04-23T00:00:21.930Z,3.87
2019-04-23T00:08:05.860Z,3.70
2019-04-23T00:10:28.595Z,4.23
2019-04-23T00:13:19.740Z,3.80
2019-04-23T00:15:30.738Z,4.00
2019-04-23T00:18:03.091Z,3.33
2019-04-23T00:20:27.232Z,5.10
2019-04-23T00:23:06.496Z,3.93
2019-04-23T00:30:43.232Z,3.40
2019-04-23T00:33:12.571Z,3.87
2019-04-23T00:35:38.882Z,3.10
2019-04-23T00:38:14.444Z,3.67
2019-04-23T00:43:09.130Z,3.77
2019-04-23T00:45:41.762Z,3.93
2019-04-23T00:48:02.212Z,4.00
2019-04-23T00:53:04.480Z,4.87
2019-04-23T00:55:39.765Z,3.87
2019-04-23T01:00:41.883Z,3.70
2019-04-23T01:03:05.757Z,3.50
2019-04-23T01:05:37.569Z,3.90
2019-04-23T01:08:07.055Z,4.10
2019-04-23T01:10:56.296Z,4.10
2019-04-23T01:15:57.750Z,4.27
2019-04-23T01:18:32.626Z,3.67
2019-04-23T01:20:52.984Z,4.40
2019-04-23T01:23:11.606Z,3.77
2019-04-23T01:25:52.407Z,3.60
2019-04-23T01:28:44.995Z,3.80
2019-04-23T01:31:09.365Z,4.50
2019-04-23T01:33:44.937Z,3.87
2019-04-23T01:38:39.161Z,4.20
2019-04-23T01:41:07.823Z,4.23
2019-04-23T01:46:08.056Z,4.20
2019-04-23T01:48:40.443Z,4.40
2019-04-23T01:51:04.056Z,3.77
2019-04-23T01:53:38.660Z,3.47
2019-04-23T01:56:06.217Z,3.90
2019-04-23T02:01:06.783Z,4.20
2019-04-23T02:03:41.091Z,4.00
2019-04-23T02:06:07.046Z,3.93
2019-04-23T02:08:41.943Z,4.73
2019-04-23T02:11:10.325Z,4.33
2019-04-23T02:13:38.369Z,3.83
2019-04-23T02:16:04.303Z,4.37
2019-04-23T02:18:35.871Z,4.33
2019-04-23T02:21:07.842Z,4.23
2019-04-23T02:23:43.912Z,4.60
2019-04-23T02:26:10.627Z,4.60
2019-04-23T02:28:49.596Z,3.90
2019-04-23T02:38:50.111Z,4.50
2019-04-23T02:41:18.500Z,3.77
2019-04-23T02:43:56.257Z,4.00
2019-04-23T02:46:24.523Z,4.90
2019-04-23T02:48:52.476Z,3.77
2019-04-23T02:51:22.109Z,4.37
2019-04-23T02:56:37.673Z,4.60
2019-04-23T02:58:54.953Z,4.17
2019-04-23T03:06:18.851Z,4.20
2019-04-23T03:08:46.544Z,3.90
2019-04-23T03:13:54.315Z,4.60
2019-04-23T03:16:38.102Z,5.13
2019-04-23T03:22:03.713Z,4.17
2019-04-23T03:27:18.780Z,4.40
2019-04-23T03:29:40.496Z,4.10
2019-04-23T03:32:45.827Z,4.27
2019-04-23T03:42:12.335Z,4.80
2019-04-23T03:45:00.581Z,4.03
2019-04-23T03:47:13.948Z,5.30
2019-04-23T03:49:40.871Z,5.27
2019-04-23T03:52:24.944Z,5.20
2019-04-23T04:02:19.686Z,3.90
2019-04-23T04:04:36.549Z,5.00
2019-04-23T04:07:21.311Z,5.20
2019-04-23T04:09:45.841Z,5.20
2019-04-23T04:12:19.100Z,4.20
2019-04-23T04:15:01.321Z,4.63
2019-04-23T04:17:17.715Z,4.70
2019-04-23T04:19:42.351Z,4.40
2019-04-23T04:22:20.736Z,5.60
2019-04-23T04:24:48.145Z,5.20
2019-04-23T04:27:12.387Z,4.60
2019-04-23T04:29:47.442Z,5.00
2019-04-23T04:32:17.519Z,4.93
2019-04-23T04:39:44.431Z,4.70
2019-04-23T04:42:10.215Z,4.67
2019-04-23T04:52:21.929Z,4.50
2019-04-23T04:54:26.314Z,4.57
2019-04-23T04:59:45.688Z,4.43
2019-04-23T05:02:20.902Z,4.37
2019-04-23T05:04:52.533Z,4.10
2019-04-23T05:07:11.386Z,5.20
2019-04-23T05:09:47.686Z,5.13
2019-04-23T05:12:24.196Z,4.30
2019-04-23T05:14:43.897Z,5.10
2019-04-23T05:17:32.563Z,4.33
2019-04-23T05:19:43.019Z,4.17
2019-04-23T05:22:17.039Z,4.93
2019-04-23T05:27:15.729Z,5.63
2019-04-23T05:29:42.242Z,5.07
2019-04-23T05:32:04.208Z,4.70
2019-04-23T05:37:06.422Z,4.43
2019-04-23T05:42:04.351Z,4.13
2019-04-23T05:44:41.407Z,5.07
2019-04-23T05:47:13.267Z,3.97
2019-04-23T05:49:41.401Z,5.17
2019-04-23T05:52:09.511Z,5.20
2019-04-23T05:54:44.686Z,4.83
2019-04-23T05:57:01.704Z,3.67
2019-04-23T05:59:40.076Z,4.00
2019-04-23T06:02:20.411Z,4.30
2019-04-23T06:04:37.098Z,5.00
2019-04-23T06:07:38.935Z,4.90
2019-04-23T06:09:54.547Z,4.90
2019-04-23T06:14:53.693Z,3.43
2019-04-23T06:19:36.784Z,5.07
2019-04-23T06:24:39.786Z,4.13
2019-04-23T06:27:08.811Z,4.70
2019-04-23T06:29:39.783Z,4.60
2019-04-23T06:32:00.135Z,4.40
2019-04-23T06:34:33.947Z,4.90
2019-04-23T06:39:42.654Z,5.03
2019-04-23T06:42:08.200Z,3.73
2019-04-23T06:44:37.830Z,4.20
2019-04-23T06:47:06.890Z,5.10
2019-04-23T06:49:44.007Z,4.33
2019-04-23T06:52:23.394Z,5.00
2019-04-23T06:54:56.510Z,4.53
2019-04-23T06:59:48.582Z,3.67
2019-04-23T07:04:56.819Z,4.33
2019-04-23T07:09:58.002Z,4.67
2019-04-23T07:12:41.469Z,4.47
2019-04-23T07:14:55.436Z,4.30
2019-04-23T07:17:25.080Z,3.70
2019-04-23T07:20:04.557Z,5.20
2019-04-23T07:22:45.369Z,3.60
2019-04-23T07:25:03.088Z,3.30
2019-04-23T07:27:31.714Z,3.90
2019-04-23T07:30:10.429Z,4.30
2019-04-23T07:32:36.245Z,3.87
2019-04-23T07:37:54.757Z,4.70
2019-04-23T07:42:59.967Z,3.60
2019-04-23T07:45:51.947Z,3.90
2019-04-23T07:50:49.453Z,3.17
2019-04-23T07:55:56.800Z,3.60
2019-04-23T08:01:04.795Z,3.63
2019-04-23T08:03:22.669Z,4.37
2019-04-23T08:05:54.427Z,3.80
2019-04-23T08:08:23.748Z,4.27
2019-04-23T08:11:30.632Z,3.90
2019-04-23T08:13:55.656Z,3.87
2019-04-23T08:16:28.008Z,5.27
2019-04-23T08:18:55.679Z,3.80
2019-04-23T08:21:30.681Z,4.30
2019-04-23T08:24:02.002Z,3.57
2019-04-23T08:34:37.563Z,3.37
2019-04-23T08:37:00.903Z,3.30
2019-04-23T08:39:32.382Z,3.77
2019-04-23T08:42:21.555Z,3.60
2019-04-23T08:44:36.874Z,3.30
2019-04-23T08:47:17.132Z,3.43
2019-04-23T08:50:17.047Z,3.60
2019-04-23T08:52:43.162Z,2.87
2019-04-23T08:55:04.271Z,3.27
2019-04-23T08:57:29.327Z,2.50
2019-04-23T09:00:04.381Z,3.93
2019-04-23T09:02:36.017Z,3.00
2019-04-23T09:12:55.199Z,3.10
2019-04-23T09:15:18.350Z,3.07
2019-04-23T09:17:41.093Z,2.60
2019-04-23T09:25:26.506Z,2.60
2019-04-23T09:27:45.352Z,2.97
2019-04-23T09:30:18.787Z,3.07
2019-04-23T09:32:46.138Z,2.13
2019-04-23T09:35:25.951Z,2.00
2019-04-23T09:38:11.678Z,2.33
2019-04-23T09:41:06.975Z,2.50
2019-04-23T09:43:47.350Z,1.90
2019-04-23T09:46:26.862Z,2.10
2019-04-23T09:48:58.118Z,2.10
2019-04-23T09:53:53.012Z,1.37
2019-04-23T09:56:32.142Z,1.60
2019-04-23T09:59:02.994Z,2.13
2019-04-23T10:03:49.672Z,1.97
2019-04-23T10:06:10.639Z,1.80
2019-04-23T10:08:38.256Z,1.60
2019-04-23T10:11:04.988Z,2.03
2019-04-23T10:13:34.402Z,2.10
2019-04-23T10:16:04.430Z,1.23
2019-04-23T10:18:35.174Z,1.80
2019-04-23T10:21:05.494Z,1.30
2019-04-23T10:23:36.724Z,1.60
2019-04-23T10:26:06.175Z,1.47
2019-04-23T10:28:53.871Z,1.07
2019-04-23T10:31:22.914Z,1.10
2019-04-23T10:33:52.359Z,1.67
2019-04-23T10:36:25.480Z,1.20
2019-04-23T10:39:00.557Z,1.33
2019-04-23T10:41:24.256Z,1.00
2019-04-23T10:43:56.692Z,1.70
2019-04-23T10:47:12.255Z,1.67
2019-04-23T10:54:53.845Z,1.40
2019-04-23T11:00:16.177Z,2.20
2019-04-23T11:03:10.099Z,1.47
2019-04-23T11:05:48.339Z,1.50
2019-04-23T11:07:38.478Z,1.93
2019-04-23T11:10:15.852Z,1.67
2019-04-23T11:13:19.430Z,1.30
2019-04-23T11:18:08.791Z,1.87
2019-04-23T11:23:04.924Z,1.47
2019-04-23T11:28:22.648Z,1.50
2019-04-23T11:30:41.505Z,1.63
2019-04-23T11:33:20.031Z,1.20
2019-04-23T11:36:01.783Z,1.07
2019-04-23T11:38:44.100Z,1.30
2019-04-23T11:40:41.731Z,0.87
2019-04-23T11:43:20.541Z,1.20
2019-04-23T11:45:53.970Z,0.97
2019-04-23T11:53:27.831Z,1.43
2019-04-23T11:55:53.313Z,1.37
2019-04-23T12:03:54.036Z,1.00
2019-04-23T12:06:26.359Z,1.13
2019-04-23T12:09:17.419Z,1.30
2019-04-23T12:14:37.229Z,1.03
2019-04-23T12:17:09.639Z,1.07
2019-04-23T12:19:52.922Z,0.97
2019-04-23T12:22:01.476Z,1.20
2019-04-23T12:29:35.312Z,1.30
2019-04-23T12:32:35.588Z,1.07
2019-04-23T12:35:01.322Z,0.80
2019-04-23T12:37:26.921Z,1.13
2019-04-23T12:39:49.787Z,1.20
2019-04-23T12:42:45.349Z,2.40
2019-04-23T12:44:56.529Z,0.70
2019-04-23T12:47:37.709Z,1.33
2019-04-23T12:50:13.669Z,0.80
2019-04-23T12:52:21.422Z,0.80
2019-04-23T12:54:58.923Z,1.00
2019-04-23T12:57:18.648Z,0.80
2019-04-23T12:59:54.831Z,0.70
2019-04-23T13:02:25.302Z,0.73
2019-04-23T13:04:49.048Z,1.20
2019-04-23T13:07:26.401Z,0.80
2019-04-23T13:09:54.084Z,0.87
2019-04-23T13:12:33.067Z,0.83
2019-04-23T13:14:57.664Z,0.90
2019-04-23T13:17:30.112Z,0.97
2019-04-23T13:19:58.151Z,0.93
2019-04-23T13:22:23.979Z,1.10
2019-04-23T13:24:54.169Z,0.80
2019-04-23T13:27:46.913Z,0.77
2019-04-23T13:30:16.949Z,0.90
2019-04-23T13:32:50.294Z,0.80
2019-04-23T13:35:27.675Z,1.07
2019-04-23T13:37:58.960Z,1.00
2019-04-23T13:40:19.923Z,0.80
2019-04-23T13:45:18.413Z,0.70
2019-04-23T13:47:53.316Z,0.70
2019-04-23T13:50:17.620Z,0.50
2019-04-23T13:55:10.821Z,0.57
2019-04-23T13:58:02.948Z,1.00
2019-04-23T14:00:19.234Z,0.67
2019-04-23T14:05:27.047Z,0.90
2019-04-23T14:08:02.037Z,0.80
2019-04-23T14:13:24.124Z,0.97
2019-04-23T14:15:41.445Z,0.70
2019-04-23T14:18:19.256Z,0.93
2019-04-23T14:20:29.842Z,0.70
2019-04-23T14:23:08.346Z,0.60
2019-04-23T14:25:34.386Z,0.70
2019-04-23T14:28:08.151Z,0.60
2019-04-23T14:33:00.865Z,0.50
2019-04-23T14:35:33.404Z,0.70
2019-04-23T14:38:15.913Z,0.77
2019-04-23T14:40:34.567Z,0.73
2019-04-23T14:43:07.429Z,1.53
2019-04-23T14:45:52.690Z,0.73
2019-04-23T14:50:44.222Z,1.10
2019-04-23T14:55:58.120Z,1.00
2019-04-23T15:01:07.441Z,0.80
2019-04-23T15:03:26.683Z,0.67
2019-04-23T15:06:10.515Z,0.50
2019-04-23T15:08:26.251Z,0.40
2019-04-23T15:11:06.589Z,0.40
2019-04-23T15:13:23.102Z,0.63
2019-04-23T15:15:57.874Z,0.40
2019-04-23T15:21:31.490Z,0.50
2019-04-23T15:23:51.925Z,0.50
2019-04-23T15:27:10.383Z,0.50
2019-04-23T15:28:15.121Z,0.60
2019-04-23T15:31:18.934Z,0.50
2019-04-23T15:33:45.110Z,0.47
2019-04-23T15:41:15.240Z,0.50
2019-04-23T15:43:41.185Z,0.40
2019-04-23T15:46:11.574Z,0.60
2019-04-23T15:48:42.443Z,0.50
2019-04-23T15:51:21.947Z,0.70
2019-04-23T15:53:34.444Z,0.43
2019-04-23T15:58:58.275Z,0.90
2019-04-23T16:01:17.630Z,0.53
2019-04-23T16:03:17.553Z,0.60
2019-04-23T16:05:46.809Z,0.77
2019-04-23T16:08:51.881Z,0.50
2019-04-23T16:11:25.543Z,0.67
2019-04-23T16:14:04.891Z,0.60
2019-04-23T16:16:14.865Z,0.80
2019-04-23T16:18:49.869Z,0.60
2019-04-23T16:23:50.321Z,0.57
2019-04-23T16:26:24.233Z,1.13
2019-04-23T16:29:07.463Z,0.70
2019-04-23T16:31:26.502Z,3.40
2019-04-23T16:34:05.108Z,0.70
2019-04-23T16:36:25.219Z,1.00
2019-04-23T16:41:24.499Z,0.80
2019-04-23T16:43:57.707Z,1.40
2019-04-23T16:46:26.873Z,0.80
2019-04-23T16:53:56.727Z,1.13
2019-04-23T16:56:52.697Z,0.60
2019-04-23T16:59:08.453Z,0.63
2019-04-23T17:01:21.307Z,0.77
2019-04-23T17:03:59.987Z,0.70
2019-04-23T17:06:26.463Z,0.70
2019-04-23T17:09:09.507Z,0.77
2019-04-23T17:11:24.958Z,1.03
2019-04-23T17:14:01.306Z,1.03
2019-04-23T17:16:32.074Z,0.80
2019-04-23T17:21:23.375Z,1.33
2019-04-23T17:26:26.338Z,1.27
2019-04-23T17:29:03.992Z,1.20
2019-04-23T17:33:59.209Z,0.90
2019-04-23T17:36:45.857Z,0.90
2019-04-23T17:39:13.056Z,0.90
2019-04-23T17:42:18.131Z,0.80
2019-04-23T17:47:08.749Z,0.70
2019-04-23T17:49:46.308Z,0.90
2019-04-23T17:52:17.216Z,0.80
2019-04-23T17:54:43.285Z,1.03
2019-04-23T18:00:08.187Z,0.97
2019-04-23T18:04:56.391Z,1.20
2019-04-23T18:07:36.217Z,0.60
2019-04-23T18:10:02.588Z,1.00
2019-04-23T18:12:31.160Z,0.80
2019-04-23T18:14:52.775Z,1.70
2019-04-23T18:17:32.953Z,0.90
2019-04-23T18:20:06.659Z,1.33
2019-04-23T18:25:25.766Z,0.90
2019-04-23T18:30:19.203Z,1.33
2019-04-23T18:33:23.767Z,1.10
2019-04-23T18:35:40.446Z,1.30
2019-04-23T18:38:04.881Z,1.17
2019-04-23T18:40:38.786Z,0.90
2019-04-23T18:48:35.153Z,1.13
2019-04-23T18:51:03.753Z,1.40
2019-04-23T18:53:32.318Z,1.13
2019-04-23T18:56:05.504Z,1.13
2019-04-23T18:58:21.937Z,1.43
2019-04-23T19:01:02.373Z,1.47
2019-04-23T19:03:30.591Z,1.50
2019-04-23T19:06:15.301Z,1.43
2019-04-23T19:09:01.360Z,1.60
2019-04-23T19:11:44.363Z,1.53
2019-04-23T19:14:25.696Z,1.40
2019-04-23T19:16:41.884Z,1.40
2019-04-23T19:19:01.412Z,2.20
2019-04-23T19:22:00.941Z,1.30
2019-04-23T19:24:09.184Z,1.30
2019-04-23T19:34:21.165Z,1.90
2019-04-23T19:49:22.838Z,1.60
2019-04-23T19:51:51.859Z,1.80
2019-04-23T19:54:38.296Z,1.70
2019-04-23T19:56:51.395Z,1.60
2019-04-23T19:59:13.473Z,1.67
2019-04-23T20:01:47.206Z,1.57
2019-04-23T20:04:21.634Z,1.73
2019-04-23T20:07:06.130Z,1.60
2019-04-23T20:09:30.286Z,1.80
2019-04-23T20:11:53.069Z,2.07
2019-04-23T20:14:11.845Z,2.20
2019-04-23T20:19:18.256Z,1.80
2019-04-23T20:21:56.178Z,2.00
2019-04-23T20:26:50.394Z,2.00
2019-04-23T20:29:50.930Z,2.30
2019-04-23T20:34:45.071Z,1.57
2019-04-23T20:36:52.689Z,2.20
2019-04-23T20:39:41.971Z,1.90
2019-04-23T20:44:39.562Z,1.60
2019-04-23T20:49:40.200Z,1.63
2019-04-23T20:52:05.105Z,1.73
2019-04-23T20:57:22.839Z,1.70
2019-04-23T20:59:57.102Z,1.40
2019-04-23T21:02:42.076Z,1.80
2019-04-23T21:05:09.839Z,1.87
2019-04-23T21:07:37.628Z,2.13
2019-04-23T21:12:45.921Z,1.77
2019-04-23T21:15:08.574Z,2.07
2019-04-23T21:17:40.657Z,1.80
2019-04-23T21:20:18.287Z,1.27
2019-04-23T21:22:38.194Z,1.80
2019-04-23T21:24:51.503Z,1.70
2019-04-23T21:27:38.536Z,2.10
2019-04-23T21:30:10.192Z,1.70
2019-04-23T21:32:49.539Z,1.33
2019-04-23T21:35:07.876Z,1.80
2019-04-23T21:37:42.925Z,1.30
2019-04-23T21:40:35.926Z,1.60
2019-04-23T21:45:04.510Z,0.80
2019-04-23T21:47:49.323Z,0.93
2019-04-23T21:50:25.269Z,0.60
2019-04-23T21:52:41.321Z,0.60
2019-04-23T21:55:11.335Z,0.83
2019-04-23T21:57:46.305Z,0.80
2019-04-23T22:00:11.180Z,0.70
2019-04-23T22:02:49.199Z,0.70
2019-04-23T22:05:13.838Z,0.60
2019-04-23T22:07:56.679Z,0.73
2019-04-23T22:10:13.583Z,0.60
2019-04-23T22:12:48.475Z,0.90
2019-04-23T22:15:07.351Z,0.97
2019-04-23T22:17:42.758Z,0.70
2019-04-23T22:20:27.737Z,0.87
2019-04-23T22:22:55.056Z,1.33
2019-04-23T22:25:11.495Z,0.60
2019-04-23T22:27:41.095Z,0.70
2019-04-23T22:30:07.607Z,0.80
2019-04-23T22:32:49.634Z,0.70
2019-04-23T22:35:07.175Z,0.80
2019-04-23T22:37:42.846Z,0.83
2019-04-23T22:40:04.687Z,0.50
2019-04-23T22:47:44.448Z,0.60
2019-04-23T22:52:40.804Z,0.50
2019-04-23T22:57:56.477Z,0.40
2019-04-23T23:00:20.142Z,0.60
2019-04-23T23:07:59.443Z,0.50
2019-04-23T23:13:01.997Z,0.60
2019-04-23T23:15:24.863Z,0.50
2019-04-23T23:17:56.292Z,0.40
2019-04-23T23:20:23.807Z,0.70
2019-04-23T23:23:01.245Z,0.50
2019-04-23T23:25:19.150Z,0.40
2019-04-23T23:27:55.104Z,0.60
2019-04-23T23:30:21.692Z,0.70
2019-04-23T23:32:52.469Z,0.40
2019-04-23T23:35:28.402Z,0.50
2019-04-23T23:37:50.475Z,0.50
2019-04-23T23:40:20.310Z,0.50
2019-04-23T23:42:58.001Z,0.50
2019-04-23T23:45:35.530Z,0.60
2019-04-23T23:47:51.950Z,0.90
2019-04-23T23:50:50.291Z,0.73
2019-04-23T23:52:55.152Z,0.60
2019-04-23T23:57:50.325Z,0.50
